F/V Oceanis — FHLH — position and weather

sailwx.info

Track history (hours):
 
Tides and Currents Weather Stations Pressure Air Temp Water Temp Dewpoint Dewpoint Depression Visibility Wind Speed Wind Dir Waves Ship Positions

F/V Oceanis

Last reported at 2018-Jan-22 20:45 UTC. Time now 2018-Jan-24 00:03 UTC.
Position N 45°36' W 001°22'.

Type: Other ship. MMSI: 228385000.

Date/timePositionNaut miles runAvg speedWind from/ knotsBaromVisibWave heightAir tempDewpointWater temp
2018-Jan-22 20:45N 45°36' W 001°22'3 8.0
2018-Jan-22 20:25N 45°38' W 001°19'3 7.0
2018-Jan-22 19:58N 45°39' W 001°15'3 7.4
2018-Jan-22 19:30N 45°39' W 001°10'4 7.3
2018-Jan-22 19:00N 45°37' W 001°06'3 5.3
2018-Jan-22 18:30N 45°37' W 001°02'0 0.0
2018-Jan-22 18:00N 45°37' W 001°02'0 0.0
2018-Jan-22 17:30N 45°37' W 001°02'0 0.0
2018-Jan-22 17:00N 45°37' W 001°02'0 0.0
2018-Jan-22 16:30N 45°37' W 001°02'0 0.0
2018-Jan-22 16:00N 45°37' W 001°02'0 0.0
2018-Jan-22 15:30N 45°37' W 001°02'0 0.0
2018-Jan-22 15:00N 45°37' W 001°02'0 0.0
2018-Jan-22 14:30N 45°37' W 001°02'0 0.0
2018-Jan-22 14:00N 45°37' W 001°02'0 0.0
2018-Jan-22 13:30N 45°37' W 001°02'0 0.0
2018-Jan-22 13:00N 45°37' W 001°02'0 0.0
2018-Jan-22 12:30N 45°37' W 001°02'0 0.0
2018-Jan-22 12:00N 45°37' W 001°02'0 0.0
2018-Jan-22 11:30N 45°37' W 001°02'0 0.0
2018-Jan-22 11:00N 45°37' W 001°02'0 0.0
2018-Jan-22 10:30N 45°37' W 001°02'0 0.0
2018-Jan-22 10:00N 45°37' W 001°02'0 0.0
2018-Jan-22 09:30N 45°37' W 001°02'0 0.0
2018-Jan-22 09:00N 45°37' W 001°02'0 0.0
2018-Jan-22 08:30N 45°37' W 001°02'0 0.0
2018-Jan-22 08:00N 45°37' W 001°02'0 0.0
2018-Jan-22 07:30N 45°37' W 001°02'0 0.0
2018-Jan-22 07:00N 45°37' W 001°02'0 0.0
2018-Jan-22 06:30N 45°37' W 001°02'0 0.0
2018-Jan-22 06:00N 45°37' W 001°02'0 0.0
2018-Jan-22 05:30N 45°37' W 001°02'0 0.0
2018-Jan-22 05:00N 45°37' W 001°02'0 0.0
2018-Jan-22 04:30N 45°37' W 001°02'0 0.0
2018-Jan-22 04:00N 45°37' W 001°02'0 0.0
2018-Jan-22 03:30N 45°37' W 001°02'0 0.0
2018-Jan-22 03:00N 45°37' W 001°02'0 0.0
2018-Jan-22 02:30N 45°37' W 001°02'0 0.0
2018-Jan-22 02:00N 45°37' W 001°02'0 0.0
2018-Jan-22 01:30N 45°37' W 001°02'0 0.0
2018-Jan-22 01:00N 45°37' W 001°02'0 0.0
2018-Jan-22 00:30N 45°37' W 001°02'0 0.0
2018-Jan-22 00:00N 45°37' W 001°02'0 0.0
2018-Jan-21 23:30N 45°37' W 001°02'0 0.0
2018-Jan-21 23:00N 45°37' W 001°02'0 0.0
2018-Jan-21 22:30N 45°37' W 001°02'0 0.0
2018-Jan-21 22:00N 45°37' W 001°02'0 0.1
2018-Jan-21 21:30N 45°37' W 001°02'0 0.0
2018-Jan-21 21:00N 45°37' W 001°02'0 0.0
2018-Jan-21 20:30N 45°37' W 001°02'0 0.0
2018-Jan-21 20:00N 45°37' W 001°02'0 0.0
2018-Jan-21 19:30N 45°37' W 001°02'0 0.0
2018-Jan-21 19:00N 45°37' W 001°02'0 0.0
2018-Jan-21 18:30N 45°37' W 001°02'0 0.0
2018-Jan-21 18:00N 45°37' W 001°02'0 0.0
2018-Jan-21 17:30N 45°37' W 001°02'0 0.0
2018-Jan-21 17:00N 45°37' W 001°02'0 0.3
2018-Jan-21 16:30N 45°37' W 001°02'0 0.2
2018-Jan-21 16:01N 45°37' W 001°02'4 8.0
2018-Jan-21 15:30N 45°35' W 001°06'510.3
2018-Jan-21 15:01N 45°31' W 001°12'5 9.1
2018-Jan-21 14:30N 45°28' W 001°15'37 7.5
2018-Jan-21 09:34N 44°51' W 001°23'0 1.7
2018-Jan-21 09:30N 44°51' W 001°23'0 0.7
2018-Jan-21 08:59N 44°51' W 001°22'1 2.3
2018-Jan-21 08:30N 44°52' W 001°22'2 1.8
2018-Jan-21 07:40N 44°50' W 001°22'0 1.1
2018-Jan-21 07:30N 44°51' W 001°21'1 1.7
2018-Jan-21 07:00N 44°51' W 001°22'2 4.9
2018-Jan-21 06:30N 44°52' W 001°25'1 1.9
2018-Jan-21 05:59N 44°53' W 001°25'1 1.4
2018-Jan-21 05:00N 44°52' W 001°25'1 2.3
2018-Jan-21 04:29N 44°53' W 001°25'1 1.0
2018-Jan-21 03:22N 44°52' W 001°25'1 1.7
2018-Jan-21 03:00N 44°52' W 001°24'0 0.2
2018-Jan-21 02:01N 44°52' W 001°24'0 2.1
2018-Jan-21 01:53N 44°52' W 001°24'2 5.4
2018-Jan-21 01:30N 44°52' W 001°21'0 0.2
2018-Jan-21 01:00N 44°52' W 001°21'0 0.0
2018-Jan-21 00:30N 44°52' W 001°21'0 0.0
2018-Jan-21 00:00N 44°52' W 001°21'0 0.0
2018-Jan-20 23:31N 44°52' W 001°21'0 0.0
2018-Jan-20 23:00N 44°52' W 001°21'0 0.0
2018-Jan-20 22:30N 44°52' W 001°21'0 0.0
2018-Jan-20 22:00N 44°52' W 001°21'0 0.0
2018-Jan-20 21:30N 44°52' W 001°21'0 0.0
2018-Jan-20 21:00N 44°52' W 001°21'0 0.0
2018-Jan-20 20:30N 44°52' W 001°21'0 0.0
2018-Jan-20 20:00N 44°52' W 001°21'0 0.0
2018-Jan-20 19:30N 44°52' W 001°21'0 0.0
2018-Jan-20 19:00N 44°52' W 001°21'0 0.2
2018-Jan-20 18:29N 44°52' W 001°21'1 1.6
2018-Jan-20 17:59N 44°51' W 001°22'1 1.4
2018-Jan-20 17:30N 44°51' W 001°23'1 1.5
2018-Jan-20 16:48N 44°52' W 001°24'0 0.8
2018-Jan-20 16:16N 44°52' W 001°25'0 0.4
2018-Jan-20 15:39N 44°51' W 001°25'1 5.8
2018-Jan-20 15:30N 44°52' W 001°25'1 2.1
2018-Jan-20 14:58N 44°53' W 001°25'1 1.8
2018-Jan-20 14:15N 44°55' W 001°25'3 1.3
2018-Jan-20 12:23N 44°52' W 001°25'1 1.9
2018-Jan-20 12:00N 44°53' W 001°25'1 2.3
2018-Jan-20 11:30N 44°54' W 001°25'2 0.4
2018-Jan-20 07:33N 44°52' W 001°25'0 2.2
2018-Jan-20 07:24N 44°52' W 001°25'0 1.0
2018-Jan-20 07:00N 44°52' W 001°24'0 0.8
2018-Jan-20 06:31N 44°52' W 001°24'3 2.6
2018-Jan-20 05:12N 44°56' W 001°24'1 2.9
2018-Jan-20 05:00N 44°56' W 001°24'1 1.0
2018-Jan-20 04:27N 44°57' W 001°24'0 0.1
2018-Jan-20 04:01N 44°57' W 001°24'0 0.0
2018-Jan-20 03:30N 44°57' W 001°24'0 0.0
2018-Jan-20 03:00N 44°57' W 001°24'0 0.0
2018-Jan-20 02:30N 44°57' W 001°24'0 0.0
2018-Jan-20 02:00N 44°57' W 001°24'0 0.0
2018-Jan-20 01:30N 44°57' W 001°24'0 0.0
2018-Jan-20 00:59N 44°57' W 001°24'0 0.0
2018-Jan-20 00:30N 44°57' W 001°24'0 0.0
2018-Jan-19 23:58N 44°57' W 001°24'0 0.0
2018-Jan-19 23:27N 44°57' W 001°24'0 0.0
2018-Jan-19 23:00N 44°57' W 001°24'0 0.0
2018-Jan-19 22:29N 44°57' W 001°24'0 0.1
2018-Jan-19 21:58N 44°57' W 001°24'0 0.1
2018-Jan-19 21:30N 44°57' W 001°24'0 0.0
2018-Jan-19 20:58N 44°57' W 001°24'0 0.0
2018-Jan-19 20:30N 44°57' W 001°24'0 0.0
2018-Jan-19 19:59N 44°57' W 001°24'0 0.0
2018-Jan-19 19:28N 44°57' W 001°24'0 0.0
2018-Jan-19 18:57N 44°57' W 001°24'0 0.0
2018-Jan-19 18:30N 44°57' W 001°24'5 4.0
2018-Jan-19 17:18N 44°52' W 001°25'2 7.2
2018-Jan-19 17:00N 44°54' W 001°25'2 2.0
2018-Jan-19 15:49N 44°52' W 001°25'4 6.9
2018-Jan-19 15:16N 44°55' W 001°24'1 0.6
2018-Jan-19 14:08N 44°56' W 001°24'0 2.8
2018-Jan-19 13:58N 44°57' W 001°24'3 1.5
2018-Jan-19 11:49N 44°53' W 001°25'1 1.7
2018-Jan-19 11:30N 44°54' W 001°25'1 0.3
2018-Jan-19 08:42N 44°53' W 001°26'0 1.8
2018-Jan-19 08:30N 44°54' W 001°26'2 2.8
2018-Jan-19 07:56N 44°55' W 001°26'2 1.1
2018-Jan-19 05:41N 44°53' W 001°24'3 0.3
2018-Jan-18 20:12N 44°56' W 001°24'3 4.0
2018-Jan-18 19:30N 44°53' W 001°25'1 0.7
2018-Jan-18 18:24N 44°53' W 001°26'4 4.8
2018-Jan-18 17:38N 44°57' W 001°24'0 0.2
2018-Jan-18 14:58N 44°57' W 001°25'2 1.1
2018-Jan-18 13:12N 44°55' W 001°25'2 1.6
2018-Jan-18 12:14N 44°53' W 001°26'0 1.7
2018-Jan-18 12:00N 44°54' W 001°26'1 2.0
2018-Jan-18 11:29N 44°55' W 001°26'1 2.0
2018-Jan-18 10:59N 44°56' W 001°26'2 0.9
2018-Jan-18 08:13N 44°53' W 001°26'1 5.6
2018-Jan-18 08:00N 44°53' W 001°25'0 0.1
2018-Jan-18 02:36N 44°53' W 001°24'1 1.2
2018-Jan-18 01:40N 44°54' W 001°25'1 1.3
2018-Jan-18 00:38N 44°53' W 001°26'  
Track history (hours):
 
Tides and Currents Weather Stations Pressure Air Temp Water Temp Dewpoint Dewpoint Depression Visibility Wind Speed Wind Dir Waves Ship Positions

F/V Oceanis

Last reported at 2018-Jan-22 20:45 UTC. Time now 2018-Jan-24 00:03 UTC.
Position N 45°36' W 001°22'.

Type: Other ship. MMSI: 228385000.

Date/timePositionNaut miles runAvg speedWind from/ knotsBaromVisibWave heightAir tempDewpointWater temp
2018-Jan-22 20:45N 45°36' W 001°22'3 8.0
2018-Jan-22 20:25N 45°38' W 001°19'3 7.0
2018-Jan-22 19:58N 45°39' W 001°15'3 7.4
2018-Jan-22 19:30N 45°39' W 001°10'4 7.3
2018-Jan-22 19:00N 45°37' W 001°06'3 5.3
2018-Jan-22 18:30N 45°37' W 001°02'0 0.0
2018-Jan-22 18:00N 45°37' W 001°02'0 0.0
2018-Jan-22 17:30N 45°37' W 001°02'0 0.0
2018-Jan-22 17:00N 45°37' W 001°02'0 0.0
2018-Jan-22 16:30N 45°37' W 001°02'0 0.0
2018-Jan-22 16:00N 45°37' W 001°02'0 0.0
2018-Jan-22 15:30N 45°37' W 001°02'0 0.0
2018-Jan-22 15:00N 45°37' W 001°02'0 0.0
2018-Jan-22 14:30N 45°37' W 001°02'0 0.0
2018-Jan-22 14:00N 45°37' W 001°02'0 0.0
2018-Jan-22 13:30N 45°37' W 001°02'0 0.0
2018-Jan-22 13:00N 45°37' W 001°02'0 0.0
2018-Jan-22 12:30N 45°37' W 001°02'0 0.0
2018-Jan-22 12:00N 45°37' W 001°02'0 0.0
2018-Jan-22 11:30N 45°37' W 001°02'0 0.0
2018-Jan-22 11:00N 45°37' W 001°02'0 0.0
2018-Jan-22 10:30N 45°37' W 001°02'0 0.0
2018-Jan-22 10:00N 45°37' W 001°02'0 0.0
2018-Jan-22 09:30N 45°37' W 001°02'0 0.0
2018-Jan-22 09:00N 45°37' W 001°02'0 0.0
2018-Jan-22 08:30N 45°37' W 001°02'0 0.0
2018-Jan-22 08:00N 45°37' W 001°02'0 0.0
2018-Jan-22 07:30N 45°37' W 001°02'0 0.0
2018-Jan-22 07:00N 45°37' W 001°02'0 0.0
2018-Jan-22 06:30N 45°37' W 001°02'0 0.0
2018-Jan-22 06:00N 45°37' W 001°02'0 0.0
2018-Jan-22 05:30N 45°37' W 001°02'0 0.0
2018-Jan-22 05:00N 45°37' W 001°02'0 0.0
2018-Jan-22 04:30N 45°37' W 001°02'0 0.0
2018-Jan-22 04:00N 45°37' W 001°02'0 0.0
2018-Jan-22 03:30N 45°37' W 001°02'0 0.0
2018-Jan-22 03:00N 45°37' W 001°02'0 0.0
2018-Jan-22 02:30N 45°37' W 001°02'0 0.0
2018-Jan-22 02:00N 45°37' W 001°02'0 0.0
2018-Jan-22 01:30N 45°37' W 001°02'0 0.0
2018-Jan-22 01:00N 45°37' W 001°02'0 0.0
2018-Jan-22 00:30N 45°37' W 001°02'0 0.0
2018-Jan-22 00:00N 45°37' W 001°02'0 0.0
2018-Jan-21 23:30N 45°37' W 001°02'0 0.0
2018-Jan-21 23:00N 45°37' W 001°02'0 0.0
2018-Jan-21 22:30N 45°37' W 001°02'0 0.0
2018-Jan-21 22:00N 45°37' W 001°02'0 0.1
2018-Jan-21 21:30N 45°37' W 001°02'0 0.0
2018-Jan-21 21:00N 45°37' W 001°02'0 0.0
2018-Jan-21 20:30N 45°37' W 001°02'0 0.0
2018-Jan-21 20:00N 45°37' W 001°02'0 0.0
2018-Jan-21 19:30N 45°37' W 001°02'0 0.0
2018-Jan-21 19:00N 45°37' W 001°02'0 0.0
2018-Jan-21 18:30N 45°37' W 001°02'0 0.0
2018-Jan-21 18:00N 45°37' W 001°02'0 0.0
2018-Jan-21 17:30N 45°37' W 001°02'0 0.0
2018-Jan-21 17:00N 45°37' W 001°02'0 0.3
2018-Jan-21 16:30N 45°37' W 001°02'0 0.2
2018-Jan-21 16:01N 45°37' W 001°02'4 8.0
2018-Jan-21 15:30N 45°35' W 001°06'510.3
2018-Jan-21 15:01N 45°31' W 001°12'5 9.1
2018-Jan-21 14:30N 45°28' W 001°15'37 7.5
2018-Jan-21 09:34N 44°51' W 001°23'0 1.7
2018-Jan-21 09:30N 44°51' W 001°23'0 0.7
2018-Jan-21 08:59N 44°51' W 001°22'1 2.3
2018-Jan-21 08:30N 44°52' W 001°22'2 1.8
2018-Jan-21 07:40N 44°50' W 001°22'0 1.1
2018-Jan-21 07:30N 44°51' W 001°21'1 1.7
2018-Jan-21 07:00N 44°51' W 001°22'2 4.9
2018-Jan-21 06:30N 44°52' W 001°25'1 1.9
2018-Jan-21 05:59N 44°53' W 001°25'1 1.4
2018-Jan-21 05:00N 44°52' W 001°25'1 2.3
2018-Jan-21 04:29N 44°53' W 001°25'1 1.0
2018-Jan-21 03:22N 44°52' W 001°25'1 1.7
2018-Jan-21 03:00N 44°52' W 001°24'0 0.2
2018-Jan-21 02:01N 44°52' W 001°24'0 2.1
2018-Jan-21 01:53N 44°52' W 001°24'2 5.4
2018-Jan-21 01:30N 44°52' W 001°21'0 0.2
2018-Jan-21 01:00N 44°52' W 001°21'0 0.0
2018-Jan-21 00:30N 44°52' W 001°21'0 0.0
2018-Jan-21 00:00N 44°52' W 001°21'0 0.0
2018-Jan-20 23:31N 44°52' W 001°21'0 0.0
2018-Jan-20 23:00N 44°52' W 001°21'0 0.0
2018-Jan-20 22:30N 44°52' W 001°21'0 0.0
2018-Jan-20 22:00N 44°52' W 001°21'0 0.0
2018-Jan-20 21:30N 44°52' W 001°21'0 0.0
2018-Jan-20 21:00N 44°52' W 001°21'0 0.0
2018-Jan-20 20:30N 44°52' W 001°21'0 0.0
2018-Jan-20 20:00N 44°52' W 001°21'0 0.0
2018-Jan-20 19:30N 44°52' W 001°21'0 0.0
2018-Jan-20 19:00N 44°52' W 001°21'0 0.2
2018-Jan-20 18:29N 44°52' W 001°21'1 1.6
2018-Jan-20 17:59N 44°51' W 001°22'1 1.4
2018-Jan-20 17:30N 44°51' W 001°23'1 1.5
2018-Jan-20 16:48N 44°52' W 001°24'0 0.8
2018-Jan-20 16:16N 44°52' W 001°25'0 0.4
2018-Jan-20 15:39N 44°51' W 001°25'1 5.8
2018-Jan-20 15:30N 44°52' W 001°25'1 2.1
2018-Jan-20 14:58N 44°53' W 001°25'1 1.8
2018-Jan-20 14:15N 44°55' W 001°25'3 1.3
2018-Jan-20 12:23N 44°52' W 001°25'1 1.9
2018-Jan-20 12:00N 44°53' W 001°25'1 2.3
2018-Jan-20 11:30N 44°54' W 001°25'2 0.4
2018-Jan-20 07:33N 44°52' W 001°25'0 2.2
2018-Jan-20 07:24N 44°52' W 001°25'0 1.0
2018-Jan-20 07:00N 44°52' W 001°24'0 0.8
2018-Jan-20 06:31N 44°52' W 001°24'3 2.6
2018-Jan-20 05:12N 44°56' W 001°24'1 2.9
2018-Jan-20 05:00N 44°56' W 001°24'1 1.0
2018-Jan-20 04:27N 44°57' W 001°24'0 0.1
2018-Jan-20 04:01N 44°57' W 001°24'0 0.0
2018-Jan-20 03:30N 44°57' W 001°24'0 0.0
2018-Jan-20 03:00N 44°57' W 001°24'0 0.0
2018-Jan-20 02:30N 44°57' W 001°24'0 0.0
2018-Jan-20 02:00N 44°57' W 001°24'0 0.0
2018-Jan-20 01:30N 44°57' W 001°24'0 0.0
2018-Jan-20 00:59N 44°57' W 001°24'0 0.0
2018-Jan-20 00:30N 44°57' W 001°24'0 0.0
2018-Jan-19 23:58N 44°57' W 001°24'0 0.0
2018-Jan-19 23:27N 44°57' W 001°24'0 0.0
2018-Jan-19 23:00N 44°57' W 001°24'0 0.0
2018-Jan-19 22:29N 44°57' W 001°24'0 0.1
2018-Jan-19 21:58N 44°57' W 001°24'0 0.1
2018-Jan-19 21:30N 44°57' W 001°24'0 0.0
2018-Jan-19 20:58N 44°57' W 001°24'0 0.0
2018-Jan-19 20:30N 44°57' W 001°24'0 0.0
2018-Jan-19 19:59N 44°57' W 001°24'0 0.0
2018-Jan-19 19:28N 44°57' W 001°24'0 0.0
2018-Jan-19 18:57N 44°57' W 001°24'0 0.0
2018-Jan-19 18:30N 44°57' W 001°24'5 4.0
2018-Jan-19 17:18N 44°52' W 001°25'2 7.2
2018-Jan-19 17:00N 44°54' W 001°25'2 2.0
2018-Jan-19 15:49N 44°52' W 001°25'4 6.9
2018-Jan-19 15:16N 44°55' W 001°24'1 0.6
2018-Jan-19 14:08N 44°56' W 001°24'0 2.8
2018-Jan-19 13:58N 44°57' W 001°24'3 1.5
2018-Jan-19 11:49N 44°53' W 001°25'1 1.7
2018-Jan-19 11:30N 44°54' W 001°25'1 0.3
2018-Jan-19 08:42N 44°53' W 001°26'0 1.8
2018-Jan-19 08:30N 44°54' W 001°26'2 2.8
2018-Jan-19 07:56N 44°55' W 001°26'2 1.1
2018-Jan-19 05:41N 44°53' W 001°24'3 0.3
2018-Jan-18 20:12N 44°56' W 001°24'3 4.0
2018-Jan-18 19:30N 44°53' W 001°25'1 0.7
2018-Jan-18 18:24N 44°53' W 001°26'4 4.8
2018-Jan-18 17:38N 44°57' W 001°24'0 0.2
2018-Jan-18 14:58N 44°57' W 001°25'2 1.1
2018-Jan-18 13:12N 44°55' W 001°25'2 1.6
2018-Jan-18 12:14N 44°53' W 001°26'0 1.7
2018-Jan-18 12:00N 44°54' W 001°26'1 2.0
2018-Jan-18 11:29N 44°55' W 001°26'1 2.0
2018-Jan-18 10:59N 44°56' W 001°26'2 0.9
2018-Jan-18 08:13N 44°53' W 001°26'1 5.6
2018-Jan-18 08:00N 44°53' W 001°25'0 0.1
2018-Jan-18 02:36N 44°53' W 001°24'1 1.2
2018-Jan-18 01:40N 44°54' W 001°25'1 1.3
2018-Jan-18 00:38N 44°53' W 001°26'  

Dump ship's entire track history